Time,TemperatureF,DewpointF,PressureIn,WindDirection,WindDirectionDegrees,WindSpeedMPH,WindSpeedGustMPH,Humidity,HourlyPrecipIn,Conditions,Clouds,dailyrainin,SolarRadiationWatts/m^2,SoftwareType,DateUTC
2013-02-14 02:21:00,9.0,5.0,-100.00,SSW,212,0.0,3.0,85,-99.99,,,0.00,0.000000,,2013-02-14 11:21:00,
2013-02-14 03:22:00,8.0,4.0,-100.00,South,186,1.0,4.0,84,-99.99,,,0.00,0.000000,,2013-02-14 12:22:00,
2013-02-14 04:21:00,5.0,1.0,-100.00,SSW,212,0.0,3.0,84,-99.99,,,0.00,0.000000,,2013-02-14 13:21:00,
2013-02-14 06:21:00,9.0,5.0,-100.00,East,89,1.0,3.0,84,-99.99,,,0.00,0.000000,,2013-02-14 15:21:00,
2013-02-14 07:21:00,10.0,6.0,-100.00,SW,225,0.0,2.0,84,-99.99,,,0.00,0.000000,,2013-02-14 16:21:00,
2013-02-14 07:51:00,10.0,6.0,-100.00,SW,225,0.0,2.0,84,-99.99,,,0.00,0.000000,,2013-02-14 16:51:00,
2013-02-14 09:22:00,15.0,11.0,-100.00,NE,35,1.0,5.0,83,-99.99,,,0.00,3.000000,,2013-02-14 18:22:00,
2013-02-14 10:21:00,18.0,13.0,-100.00,East,89,1.0,5.0,81,-99.99,,,0.00,21.000000,,2013-02-14 19:21:00,
2013-02-14 10:31:00,18.0,13.0,-100.00,East,89,1.0,5.0,81,-99.99,,,0.00,21.000000,,2013-02-14 19:31:00,
2013-02-14 10:41:00,18.0,13.0,-100.00,East,89,1.0,5.0,81,-99.99,,,0.00,21.000000,,2013-02-14 19:41:00,
2013-02-14 10:51:00,18.0,13.0,-100.00,East,89,1.0,5.0,81,-99.99,,,0.00,21.000000,,2013-02-14 19:51:00,
2013-02-14 11:21:00,21.0,13.0,-100.00,North,5,2.0,8.0,70,0.00,,,0.00,29.000000,,2013-02-14 20:21:00,
2013-02-14 11:31:00,21.0,13.0,-100.00,North,5,2.0,8.0,70,0.00,,,0.00,29.000000,,2013-02-14 20:31:00,
2013-02-14 11:41:00,21.0,13.0,-100.00,North,5,2.0,8.0,70,0.00,,,0.00,29.000000,,2013-02-14 20:41:00,
2013-02-14 11:52:00,21.0,13.0,-100.00,North,5,2.0,8.0,70,0.00,,,0.00,29.000000,,2013-02-14 20:52:00,
2013-02-14 12:21:00,22.0,16.0,-100.00,NW,311,2.0,5.0,76,0.00,,,0.00,26.000000,,2013-02-14 21:21:00,
2013-02-14 12:31:00,22.0,16.0,-100.00,NW,311,2.0,5.0,76,0.00,,,0.00,26.000000,,2013-02-14 21:31:00,
2013-02-14 12:41:00,22.0,16.0,-100.00,NW,311,2.0,5.0,76,0.00,,,0.00,26.000000,,2013-02-14 21:41:00,
2013-02-14 12:51:00,22.0,16.0,-100.00,NW,311,2.0,5.0,76,0.00,,,0.00,26.000000,,2013-02-14 21:51:00,
2013-02-14 13:21:00,27.0,21.0,-100.00,South,176,2.0,9.0,77,0.00,,,0.00,52.000000,,2013-02-14 22:21:00,
2013-02-14 13:31:00,27.0,21.0,-100.00,South,176,2.0,9.0,77,0.00,,,0.00,52.000000,,2013-02-14 22:31:00,
2013-02-14 13:41:00,27.0,21.0,-100.00,South,176,2.0,9.0,77,0.00,,,0.00,52.000000,,2013-02-14 22:41:00,
2013-02-14 13:51:00,27.0,21.0,-100.00,South,176,2.0,9.0,77,0.00,,,0.00,52.000000,,2013-02-14 22:51:00,
2013-02-14 14:21:00,29.0,21.0,-100.00,ENE,71,4.0,10.0,73,0.00,,,0.00,56.000000,,2013-02-14 23:21:00,
2013-02-14 14:31:00,29.0,21.0,-100.00,ENE,71,4.0,10.0,73,0.00,,,0.00,56.000000,,2013-02-14 23:31:00,
2013-02-14 14:41:00,29.0,21.0,-100.00,ENE,71,4.0,10.0,73,0.00,,,0.00,56.000000,,2013-02-14 23:41:00,
2013-02-14 14:52:00,29.0,21.0,-100.00,ENE,71,4.0,10.0,73,0.00,,,0.00,56.000000,,2013-02-14 23:52:00,
2013-02-14 15:21:00,31.0,23.0,-100.00,NE,54,2.0,6.0,73,0.00,,,0.00,73.000000,,2013-02-15 00:21:00,
2013-02-14 15:31:00,31.0,23.0,-100.00,NE,54,2.0,6.0,73,0.00,,,0.00,73.000000,,2013-02-15 00:31:00,
2013-02-14 15:41:00,31.0,23.0,-100.00,NE,54,2.0,6.0,73,0.00,,,0.00,73.000000,,2013-02-15 00:41:00,
2013-02-14 15:51:00,31.0,23.0,-100.00,NE,54,2.0,6.0,73,0.00,,,0.00,73.000000,,2013-02-15 00:51:00,
2013-02-14 16:21:00,31.0,24.0,-100.00,SE,142,1.0,4.0,76,0.00,,,0.00,52.000000,,2013-02-15 01:21:00,
2013-02-14 16:31:00,31.0,24.0,-100.00,SE,142,1.0,4.0,76,0.00,,,0.00,52.000000,,2013-02-15 01:31:00,
2013-02-14 16:41:00,31.0,24.0,-100.00,SE,142,1.0,4.0,76,0.00,,,0.00,52.000000,,2013-02-15 01:41:00,
2013-02-14 16:51:00,31.0,24.0,-100.00,SE,142,1.0,4.0,76,0.00,,,0.00,52.000000,,2013-02-15 01:51:00,
2013-02-14 17:21:00,29.0,23.0,-100.00,ENE,60,3.0,6.0,79,0.00,,,0.00,19.000000,,2013-02-15 02:21:00,
2013-02-14 17:31:00,29.0,23.0,-100.00,ENE,60,3.0,6.0,79,0.00,,,0.00,19.000000,,2013-02-15 02:31:00,
2013-02-14 17:41:00,29.0,23.0,-100.00,ENE,60,3.0,6.0,79,0.00,,,0.00,19.000000,,2013-02-15 02:41:00,
2013-02-14 17:52:00,29.0,23.0,-100.00,ENE,60,3.0,6.0,79,0.00,,,0.00,19.000000,,2013-02-15 02:52:00,
2013-02-14 18:21:00,28.0,24.0,-100.00,North,351,1.0,5.0,84,0.00,,,0.00,1.000000,,2013-02-15 03:21:00,
2013-02-14 18:32:00,28.0,24.0,-100.00,North,351,1.0,5.0,84,0.00,,,0.00,1.000000,,2013-02-15 03:32:00,
2013-02-14 18:41:00,28.0,24.0,-100.00,North,351,1.0,5.0,84,0.00,,,0.00,1.000000,,2013-02-15 03:41:00,
2013-02-14 18:51:00,28.0,24.0,-100.00,North,351,1.0,5.0,84,0.00,,,0.00,1.000000,,2013-02-15 03:51:00,
2013-02-14 19:21:00,29.0,25.0,-100.00,West,267,2.0,4.0,85,0.00,,,0.00,0.000000,,2013-02-15 04:21:00,
2013-02-14 19:31:00,29.0,25.0,-100.00,West,267,2.0,4.0,85,0.00,,,0.00,0.000000,,2013-02-15 04:31:00,
2013-02-14 19:41:00,29.0,25.0,-100.00,West,267,2.0,4.0,85,0.00,,,0.00,0.000000,,2013-02-15 04:41:00,
2013-02-14 19:51:00,29.0,25.0,-100.00,West,267,2.0,4.0,85,0.00,,,0.00,0.000000,,2013-02-15 04:51:00,
2013-02-14 20:22:00,29.0,26.0,-100.00,SE,130,2.0,10.0,88,0.00,,,0.00,0.000000,,2013-02-15 05:22:00,
2013-02-14 20:32:00,29.0,26.0,-100.00,SE,130,2.0,10.0,88,0.00,,,0.00,0.000000,,2013-02-15 05:32:00,
2013-02-14 20:41:00,29.0,26.0,-100.00,SE,130,2.0,10.0,88,0.00,,,0.00,0.000000,,2013-02-15 05:41:00,
2013-02-14 20:52:00,29.0,26.0,-100.00,SE,130,2.0,10.0,88,0.00,,,0.00,0.000000,,2013-02-15 05:52:00,
2013-02-14 21:21:00,32.0,28.0,-100.00,WSW,254,2.0,10.0,84,0.00,,,0.00,0.000000,,2013-02-15 06:21:00,
2013-02-14 21:31:00,32.0,28.0,-100.00,WSW,254,2.0,10.0,84,0.00,,,0.00,0.000000,,2013-02-15 06:31:00,
2013-02-14 21:42:00,32.0,28.0,-100.00,WSW,254,2.0,10.0,84,0.00,,,0.00,0.000000,,2013-02-15 06:42:00,
2013-02-14 21:51:00,32.0,28.0,-100.00,WSW,254,2.0,10.0,84,0.00,,,0.00,0.000000,,2013-02-15 06:51:00,
2013-02-14 22:21:00,31.0,27.0,-100.00,West,270,2.0,5.0,86,0.00,,,0.00,0.000000,,2013-02-15 07:21:00,
2013-02-14 22:31:00,31.0,27.0,-100.00,West,270,2.0,5.0,86,0.00,,,0.00,0.000000,,2013-02-15 07:31:00,
2013-02-14 22:41:00,31.0,27.0,-100.00,West,270,2.0,5.0,86,0.00,,,0.00,0.000000,,2013-02-15 07:41:00,
2013-02-14 22:52:00,31.0,27.0,-100.00,West,270,2.0,5.0,86,0.00,,,0.00,0.000000,,2013-02-15 07:52:00,
2013-02-14 23:21:00,33.0,28.0,-100.00,NW,306,2.0,7.0,80,0.00,,,0.00,0.000000,,2013-02-15 08:21:00,
2013-02-14 23:31:00,33.0,28.0,-100.00,NW,306,2.0,7.0,80,0.00,,,0.00,0.000000,,2013-02-15 08:31:00,
2013-02-14 23:41:00,33.0,28.0,-100.00,NW,306,2.0,7.0,80,0.00,,,0.00,0.000000,,2013-02-15 08:41:00,
2013-02-14 23:52:00,33.0,28.0,-100.00,NW,306,2.0,7.0,80,0.00,,,0.00,0.000000,,2013-02-15 08:52:00,